sensor_id;sensor_type;location;lat;lon;timestamp;temperature;humidity
44170;DHT22;29836;52.286;9.576;2023-04-01T00:00:16;8.70;99.90
44170;DHT22;29836;52.286;9.576;2023-04-01T00:02:42;8.80;99.90
44170;DHT22;29836;52.286;9.576;2023-04-01T00:05:08;8.70;99.90
44170;DHT22;29836;52.286;9.576;2023-04-01T00:07:36;8.70;99.90
44170;DHT22;29836;52.286;9.576;2023-04-01T00:10:02;8.70;99.90
44170;DHT22;29836;52.286;9.576;2023-04-01T00:12:28;8.70;99.90
44170;DHT22;29836;52.286;9.576;2023-04-01T00:14:53;8.70;99.90
44170;DHT22;29836;52.286;9.576;2023-04-01T00:17:19;8.70;99.90
44170;DHT22;29836;52.286;9.576;2023-04-01T00:19:45;8.60;99.90
44170;DHT22;29836;52.286;9.576;2023-04-01T00:22:10;8.70;99.90
44170;DHT22;29836;52.286;9.576;2023-04-01T00:24:37;8.60;99.90
44170;DHT22;29836;52.286;9.576;2023-04-01T00:27:03;8.60;99.90
44170;DHT22;29836;52.286;9.576;2023-04-01T00:29:29;8.60;99.90
44170;DHT22;29836;52.286;9.576;2023-04-01T00:31:57;8.50;99.90
44170;DHT22;29836;52.286;9.576;2023-04-01T00:34:23;8.50;99.90
44170;DHT22;29836;52.286;9.576;2023-04-01T00:36:52;8.60;99.90
44170;DHT22;29836;52.286;9.576;2023-04-01T00:39:18;8.60;99.90
44170;DHT22;29836;52.286;9.576;2023-04-01T00:41:44;8.60;99.90
44170;DHT22;29836;52.286;9.576;2023-04-01T00:44:21;8.60;99.90
44170;DHT22;29836;52.286;9.576;2023-04-01T00:46:47;8.60;99.90
44170;DHT22;29836;52.286;9.576;2023-04-01T00:49:14;8.60;99.90
44170;DHT22;29836;52.286;9.576;2023-04-01T00:51:43;8.60;99.90
44170;DHT22;29836;52.286;9.576;2023-04-01T00:54:11;8.50;99.90
44170;DHT22;29836;52.286;9.576;2023-04-01T00:56:43;8.50;99.90
44170;DHT22;29836;52.286;9.576;2023-04-01T00:59:16;8.40;99.90
44170;DHT22;29836;52.286;9.576;2023-04-01T01:01:43;8.40;99.90
44170;DHT22;29836;52.286;9.576;2023-04-01T01:04:42;8.40;99.90
44170;DHT22;29836;52.286;9.576;2023-04-01T01:07:32;8.40;99.90
44170;DHT22;29836;52.286;9.576;2023-04-01T01:10:18;8.30;99.90
44170;DHT22;29836;52.286;9.576;2023-04-01T01:15:35;8.30;99.90
44170;DHT22;29836;52.286;9.576;2023-04-01T01:18:26;8.30;99.90
44170;DHT22;29836;52.286;9.576;2023-04-01T01:32:07;8.30;99.90
44170;DHT22;29836;52.286;9.576;2023-04-01T01:37:32;8.30;99.90
44170;DHT22;29836;52.286;9.576;2023-04-01T01:40:05;8.40;99.90
44170;DHT22;29836;52.286;9.576;2023-04-01T01:42:34;8.40;99.90
44170;DHT22;29836;52.286;9.576;2023-04-01T01:45:01;8.40;99.90
44170;DHT22;29836;52.286;9.576;2023-04-01T01:47:28;8.40;99.90
44170;DHT22;29836;52.286;9.576;2023-04-01T01:49:55;8.40;99.90
44170;DHT22;29836;52.286;9.576;2023-04-01T01:52:24;8.40;99.90
44170;DHT22;29836;52.286;9.576;2023-04-01T01:54:54;8.40;99.90
44170;DHT22;29836;52.286;9.576;2023-04-01T01:57:28;8.40;99.90
44170;DHT22;29836;52.286;9.576;2023-04-01T01:59:58;8.40;99.90
44170;DHT22;29836;52.286;9.576;2023-04-01T02:02:25;8.40;99.90
44170;DHT22;29836;52.286;9.576;2023-04-01T02:04:52;8.40;99.90
44170;DHT22;29836;52.286;9.576;2023-04-01T02:07:28;8.40;99.90
44170;DHT22;29836;52.286;9.576;2023-04-01T02:09:56;8.40;99.90
44170;DHT22;29836;52.286;9.576;2023-04-01T02:12:23;8.40;99.90
44170;DHT22;29836;52.286;9.576;2023-04-01T02:14:56;8.40;99.90
44170;DHT22;29836;52.286;9.576;2023-04-01T02:17:26;8.40;99.90
44170;DHT22;29836;52.286;9.576;2023-04-01T02:19:53;8.40;99.90
44170;DHT22;29836;52.286;9.576;2023-04-01T02:22:24;8.40;99.90
44170;DHT22;29836;52.286;9.576;2023-04-01T02:24:54;8.40;99.90
44170;DHT22;29836;52.286;9.576;2023-04-01T02:27:22;8.40;99.90
44170;DHT22;29836;52.286;9.576;2023-04-01T02:29:48;8.40;99.90
44170;DHT22;29836;52.286;9.576;2023-04-01T02:32:14;8.40;99.90
44170;DHT22;29836;52.286;9.576;2023-04-01T02:34:42;8.40;99.90
44170;DHT22;29836;52.286;9.576;2023-04-01T02:37:08;8.40;99.90
44170;DHT22;29836;52.286;9.576;2023-04-01T02:39:34;8.40;99.90
44170;DHT22;29836;52.286;9.576;2023-04-01T02:42:00;8.40;99.90
44170;DHT22;29836;52.286;9.576;2023-04-01T02:44:26;8.30;99.90
44170;DHT22;29836;52.286;9.576;2023-04-01T02:46:51;8.30;99.90
44170;DHT22;29836;52.286;9.576;2023-04-01T02:49:17;8.30;99.90
44170;DHT22;29836;52.286;9.576;2023-04-01T02:51:43;8.30;99.90
44170;DHT22;29836;52.286;9.576;2023-04-01T02:54:08;8.30;99.90
44170;DHT22;29836;52.286;9.576;2023-04-01T02:56:34;8.30;99.90
44170;DHT22;29836;52.286;9.576;2023-04-01T02:59:00;8.30;99.90
44170;DHT22;29836;52.286;9.576;2023-04-01T03:01:25;8.40;99.90
44170;DHT22;29836;52.286;9.576;2023-04-01T03:03:51;8.30;99.90
44170;DHT22;29836;52.286;9.576;2023-04-01T03:06:17;8.40;99.90
44170;DHT22;29836;52.286;9.576;2023-04-01T03:08:43;8.40;99.90
44170;DHT22;29836;52.286;9.576;2023-04-01T03:11:09;8.40;99.90
44170;DHT22;29836;52.286;9.576;2023-04-01T03:13:35;8.40;99.90
44170;DHT22;29836;52.286;9.576;2023-04-01T03:16:01;8.40;99.90
44170;DHT22;29836;52.286;9.576;2023-04-01T03:18:26;8.50;99.90
44170;DHT22;29836;52.286;9.576;2023-04-01T03:20:52;8.50;99.90
44170;DHT22;29836;52.286;9.576;2023-04-01T03:23:17;8.40;99.90
44170;DHT22;29836;52.286;9.576;2023-04-01T03:25:45;8.40;99.90
44170;DHT22;29836;52.286;9.576;2023-04-01T03:28:11;8.40;99.90
44170;DHT22;29836;52.286;9.576;2023-04-01T03:30:37;8.30;99.90
44170;DHT22;29836;52.286;9.576;2023-04-01T03:33:03;8.30;99.90
44170;DHT22;29836;52.286;9.576;2023-04-01T03:35:28;8.30;99.90
44170;DHT22;29836;52.286;9.576;2023-04-01T03:37:55;8.30;99.90
44170;DHT22;29836;52.286;9.576;2023-04-01T03:40:21;8.40;99.90
44170;DHT22;29836;52.286;9.576;2023-04-01T03:42:47;8.30;99.90
44170;DHT22;29836;52.286;9.576;2023-04-01T03:45:13;8.30;99.90
44170;DHT22;29836;52.286;9.576;2023-04-01T03:47:39;8.30;99.90
44170;DHT22;29836;52.286;9.576;2023-04-01T03:50:06;8.30;99.90
44170;DHT22;29836;52.286;9.576;2023-04-01T03:52:32;8.40;99.90
44170;DHT22;29836;52.286;9.576;2023-04-01T03:54:58;8.40;99.90
44170;DHT22;29836;52.286;9.576;2023-04-01T03:57:24;8.30;99.90
44170;DHT22;29836;52.286;9.576;2023-04-01T03:59:49;8.30;99.90
44170;DHT22;29836;52.286;9.576;2023-04-01T04:02:15;8.30;99.90
44170;DHT22;29836;52.286;9.576;2023-04-01T04:04:40;8.30;99.90
44170;DHT22;29836;52.286;9.576;2023-04-01T04:07:06;8.30;99.90
44170;DHT22;29836;52.286;9.576;2023-04-01T04:09:32;8.30;99.90
44170;DHT22;29836;52.286;9.576;2023-04-01T04:11:58;8.30;99.90
44170;DHT22;29836;52.286;9.576;2023-04-01T04:14:24;8.20;99.90
44170;DHT22;29836;52.286;9.576;2023-04-01T04:16:50;8.20;99.90
44170;DHT22;29836;52.286;9.576;2023-04-01T04:19:15;8.20;99.90
44170;DHT22;29836;52.286;9.576;2023-04-01T04:21:41;8.20;99.90
44170;DHT22;29836;52.286;9.576;2023-04-01T04:24:07;8.20;99.90
44170;DHT22;29836;52.286;9.576;2023-04-01T04:26:33;8.10;99.90
44170;DHT22;29836;52.286;9.576;2023-04-01T04:28:59;8.20;99.90
44170;DHT22;29836;52.286;9.576;2023-04-01T04:31:25;8.20;99.90
44170;DHT22;29836;52.286;9.576;2023-04-01T04:33:51;8.30;99.90
44170;DHT22;29836;52.286;9.576;2023-04-01T04:36:19;8.30;99.90
44170;DHT22;29836;52.286;9.576;2023-04-01T04:38:45;8.20;99.90
44170;DHT22;29836;52.286;9.576;2023-04-01T04:41:15;8.20;99.90
44170;DHT22;29836;52.286;9.576;2023-04-01T04:43:49;8.20;99.90
44170;DHT22;29836;52.286;9.576;2023-04-01T04:46:15;8.20;99.90
44170;DHT22;29836;52.286;9.576;2023-04-01T04:48:40;8.30;99.90
44170;DHT22;29836;52.286;9.576;2023-04-01T04:51:06;8.20;99.90
44170;DHT22;29836;52.286;9.576;2023-04-01T04:53:32;8.30;99.90
44170;DHT22;29836;52.286;9.576;2023-04-01T04:55:57;8.30;99.90
44170;DHT22;29836;52.286;9.576;2023-04-01T04:58:23;8.30;99.90
44170;DHT22;29836;52.286;9.576;2023-04-01T05:00:48;8.20;99.90
44170;DHT22;29836;52.286;9.576;2023-04-01T05:03:14;8.20;99.90
44170;DHT22;29836;52.286;9.576;2023-04-01T05:05:48;8.20;99.90
44170;DHT22;29836;52.286;9.576;2023-04-01T05:08:14;8.10;99.90
44170;DHT22;29836;52.286;9.576;2023-04-01T05:10:40;8.10;99.90
44170;DHT22;29836;52.286;9.576;2023-04-01T05:13:06;8.10;99.90
44170;DHT22;29836;52.286;9.576;2023-04-01T05:15:32;8.10;99.90
44170;DHT22;29836;52.286;9.576;2023-04-01T05:17:57;8.10;99.90
44170;DHT22;29836;52.286;9.576;2023-04-01T05:20:23;8.10;99.90
44170;DHT22;29836;52.286;9.576;2023-04-01T05:22:48;8.10;99.90
44170;DHT22;29836;52.286;9.576;2023-04-01T05:25:14;8.20;99.90
44170;DHT22;29836;52.286;9.576;2023-04-01T05:27:40;8.20;99.90
44170;DHT22;29836;52.286;9.576;2023-04-01T05:30:06;8.10;99.90
44170;DHT22;29836;52.286;9.576;2023-04-01T05:32:31;8.20;99.90
44170;DHT22;29836;52.286;9.576;2023-04-01T05:34:57;8.20;99.90
44170;DHT22;29836;52.286;9.576;2023-04-01T05:37:23;8.30;99.90
44170;DHT22;29836;52.286;9.576;2023-04-01T05:39:48;8.30;99.90
44170;DHT22;29836;52.286;9.576;2023-04-01T05:42:14;8.30;99.90
44170;DHT22;29836;52.286;9.576;2023-04-01T05:44:41;8.40;99.90
44170;DHT22;29836;52.286;9.576;2023-04-01T05:47:06;8.30;99.90
44170;DHT22;29836;52.286;9.576;2023-04-01T05:49:33;8.50;99.90
44170;DHT22;29836;52.286;9.576;2023-04-01T05:51:58;8.50;99.90
44170;DHT22;29836;52.286;9.576;2023-04-01T05:54:24;8.50;99.90
44170;DHT22;29836;52.286;9.576;2023-04-01T05:56:50;8.60;99.90
44170;DHT22;29836;52.286;9.576;2023-04-01T05:59:15;8.60;99.90
44170;DHT22;29836;52.286;9.576;2023-04-01T06:01:41;8.70;99.90
44170;DHT22;29836;52.286;9.576;2023-04-01T06:04:09;8.70;99.90
44170;DHT22;29836;52.286;9.576;2023-04-01T06:06:35;8.70;99.90
44170;DHT22;29836;52.286;9.576;2023-04-01T06:09:13;8.60;99.90
44170;DHT22;29836;52.286;9.576;2023-04-01T06:15:03;8.80;99.90
44170;DHT22;29836;52.286;9.576;2023-04-01T06:23:05;8.80;99.90
44170;DHT22;29836;52.286;9.576;2023-04-01T06:30:52;8.80;99.90
44170;DHT22;29836;52.286;9.576;2023-04-01T06:33:34;8.80;99.90
44170;DHT22;29836;52.286;9.576;2023-04-01T06:39:27;8.90;99.90
44170;DHT22;29836;52.286;9.576;2023-04-01T06:48:11;9.00;99.90
44170;DHT22;29836;52.286;9.576;2023-04-01T06:53:38;9.00;99.90
44170;DHT22;29836;52.286;9.576;2023-04-01T06:56:16;9.00;99.90
44170;DHT22;29836;52.286;9.576;2023-04-01T06:58:50;9.10;99.90
44170;DHT22;29836;52.286;9.576;2023-04-01T07:01:21;9.20;99.90
44170;DHT22;29836;52.286;9.576;2023-04-01T07:03:55;9.10;99.90
44170;DHT22;29836;52.286;9.576;2023-04-01T07:06:35;9.20;99.90
44170;DHT22;29836;52.286;9.576;2023-04-01T07:09:05;9.30;99.90
44170;DHT22;29836;52.286;9.576;2023-04-01T07:11:34;9.30;99.90
44170;DHT22;29836;52.286;9.576;2023-04-01T07:14:13;9.20;99.90
44170;DHT22;29836;52.286;9.576;2023-04-01T07:19:29;9.40;99.90
44170;DHT22;29836;52.286;9.576;2023-04-01T07:22:04;9.50;99.90
44170;DHT22;29836;52.286;9.576;2023-04-01T07:24:39;9.60;99.90
44170;DHT22;29836;52.286;9.576;2023-04-01T07:27:11;9.70;99.90
44170;DHT22;29836;52.286;9.576;2023-04-01T07:29:37;9.80;99.90
44170;DHT22;29836;52.286;9.576;2023-04-01T07:32:27;9.90;99.90
44170;DHT22;29836;52.286;9.576;2023-04-01T07:35:09;10.00;99.90
44170;DHT22;29836;52.286;9.576;2023-04-01T07:41:17;10.30;99.90
44170;DHT22;29836;52.286;9.576;2023-04-01T07:46:58;10.60;99.90
44170;DHT22;29836;52.286;9.576;2023-04-01T07:52:29;10.60;99.90
44170;DHT22;29836;52.286;9.576;2023-04-01T07:55:18;10.60;99.90
44170;DHT22;29836;52.286;9.576;2023-04-01T08:03:42;10.50;99.90
44170;DHT22;29836;52.286;9.576;2023-04-01T08:06:49;10.50;99.90
44170;DHT22;29836;52.286;9.576;2023-04-01T08:18:05;10.80;99.90
44170;DHT22;29836;52.286;9.576;2023-04-01T08:20:56;11.10;99.90
44170;DHT22;29836;52.286;9.576;2023-04-01T08:23:27;11.20;99.90
44170;DHT22;29836;52.286;9.576;2023-04-01T08:25:58;11.20;99.90
44170;DHT22;29836;52.286;9.576;2023-04-01T08:33:31;11.40;99.90
44170;DHT22;29836;52.286;9.576;2023-04-01T08:35:59;11.40;99.90
44170;DHT22;29836;52.286;9.576;2023-04-01T08:49:45;11.80;99.90
44170;DHT22;29836;52.286;9.576;2023-04-01T08:52:37;11.60;99.90
44170;DHT22;29836;52.286;9.576;2023-04-01T08:55:17;11.40;99.90
44170;DHT22;29836;52.286;9.576;2023-04-01T09:03:58;11.10;99.90
44170;DHT22;29836;52.286;9.576;2023-04-01T09:06:44;10.80;99.90
44170;DHT22;29836;52.286;9.576;2023-04-01T09:15:34;10.70;99.90
44170;DHT22;29836;52.286;9.576;2023-04-01T09:21:03;10.40;99.90
44170;DHT22;29836;52.286;9.576;2023-04-01T09:39:36;10.60;99.90
44170;DHT22;29836;52.286;9.576;2023-04-01T09:56:46;10.90;99.90
44170;DHT22;29836;52.286;9.576;2023-04-01T10:02:31;10.90;99.90
44170;DHT22;29836;52.286;9.576;2023-04-01T10:11:22;11.00;99.90
44170;DHT22;29836;52.286;9.576;2023-04-01T10:20:27;11.30;99.90
44170;DHT22;29836;52.286;9.576;2023-04-01T10:43:20;11.90;99.90
44170;DHT22;29836;52.286;9.576;2023-04-01T10:46:22;11.90;99.90
44170;DHT22;29836;52.286;9.576;2023-04-01T10:49:41;12.20;99.90
44170;DHT22;29836;52.286;9.576;2023-04-01T10:52:22;12.40;99.90
44170;DHT22;29836;52.286;9.576;2023-04-01T10:55:30;12.70;99.90
44170;DHT22;29836;52.286;9.576;2023-04-01T11:04:13;12.50;99.90
44170;DHT22;29836;52.286;9.576;2023-04-01T11:07:15;12.20;99.90
44170;DHT22;29836;52.286;9.576;2023-04-01T11:15:48;11.60;99.90
44170;DHT22;29836;52.286;9.576;2023-04-01T11:18:48;11.40;99.90
44170;DHT22;29836;52.286;9.576;2023-04-01T11:21:42;11.50;99.90
44170;DHT22;29836;52.286;9.576;2023-04-01T11:24:33;11.60;99.90
44170;DHT22;29836;52.286;9.576;2023-04-01T11:30:22;12.00;99.90
44170;DHT22;29836;52.286;9.576;2023-04-01T11:38:19;12.20;99.90
44170;DHT22;29836;52.286;9.576;2023-04-01T11:43:57;12.10;99.90
44170;DHT22;29836;52.286;9.576;2023-04-01T11:46:46;12.10;99.90
44170;DHT22;29836;52.286;9.576;2023-04-01T11:55:12;12.30;99.90
44170;DHT22;29836;52.286;9.576;2023-04-01T11:57:51;12.40;99.90
44170;DHT22;29836;52.286;9.576;2023-04-01T12:05:58;12.50;99.90
44170;DHT22;29836;52.286;9.576;2023-04-01T12:17:31;12.70;99.90
44170;DHT22;29836;52.286;9.576;2023-04-01T12:28:45;12.60;99.90
44170;DHT22;29836;52.286;9.576;2023-04-01T12:37:05;12.90;99.90
44170;DHT22;29836;52.286;9.576;2023-04-01T12:43:05;13.00;99.90
44170;DHT22;29836;52.286;9.576;2023-04-01T12:45:47;13.10;99.90
44170;DHT22;29836;52.286;9.576;2023-04-01T12:48:34;13.00;99.90
44170;DHT22;29836;52.286;9.576;2023-04-01T13:00:35;13.00;99.90
44170;DHT22;29836;52.286;9.576;2023-04-01T13:03:23;12.70;99.90
44170;DHT22;29836;52.286;9.576;2023-04-01T13:17:36;12.20;99.90
44170;DHT22;29836;52.286;9.576;2023-04-01T13:25:51;12.00;99.90
44170;DHT22;29836;52.286;9.576;2023-04-01T13:28:32;11.90;99.90
44170;DHT22;29836;52.286;9.576;2023-04-01T13:31:40;11.90;99.90
44170;DHT22;29836;52.286;9.576;2023-04-01T13:40:04;11.80;99.90
44170;DHT22;29836;52.286;9.576;2023-04-01T13:42:49;11.70;99.90
44170;DHT22;29836;52.286;9.576;2023-04-01T13:45:15;11.50;99.90
44170;DHT22;29836;52.286;9.576;2023-04-01T13:54:12;11.10;99.90
44170;DHT22;29836;52.286;9.576;2023-04-01T14:05:23;11.10;99.90
44170;DHT22;29836;52.286;9.576;2023-04-01T14:10:44;11.30;99.90
44170;DHT22;29836;52.286;9.576;2023-04-01T14:13:43;11.40;99.90
44170;DHT22;29836;52.286;9.576;2023-04-01T14:20:08;11.30;99.90
44170;DHT22;29836;52.286;9.576;2023-04-01T14:31:23;11.30;99.90
44170;DHT22;29836;52.286;9.576;2023-04-01T14:35:03;11.20;99.90
44170;DHT22;29836;52.286;9.576;2023-04-01T14:37:07;11.20;99.90
44170;DHT22;29836;52.286;9.576;2023-04-01T14:42:54;11.00;99.90
44170;DHT22;29836;52.286;9.576;2023-04-01T14:50:55;10.00;99.90
44170;DHT22;29836;52.286;9.576;2023-04-01T14:53:34;9.80;99.90
44170;DHT22;29836;52.286;9.576;2023-04-01T14:56:04;9.70;99.90
44170;DHT22;29836;52.286;9.576;2023-04-01T14:58:50;9.50;99.90
44170;DHT22;29836;52.286;9.576;2023-04-01T15:01:52;9.50;99.90
44170;DHT22;29836;52.286;9.576;2023-04-01T15:04:44;9.30;99.90
44170;DHT22;29836;52.286;9.576;2023-04-01T15:18:05;8.70;99.90
44170;DHT22;29836;52.286;9.576;2023-04-01T15:20:53;8.60;99.90
44170;DHT22;29836;52.286;9.576;2023-04-01T15:23:35;8.50;99.90
44170;DHT22;29836;52.286;9.576;2023-04-01T15:31:51;8.40;99.90
44170;DHT22;29836;52.286;9.576;2023-04-01T15:34:28;8.40;99.90
44170;DHT22;29836;52.286;9.576;2023-04-01T15:48:28;8.10;99.90
44170;DHT22;29836;52.286;9.576;2023-04-01T15:53:43;8.10;99.90
44170;DHT22;29836;52.286;9.576;2023-04-01T15:56:16;8.00;99.90
44170;DHT22;29836;52.286;9.576;2023-04-01T15:59:02;7.90;99.90
44170;DHT22;29836;52.286;9.576;2023-04-01T16:12:57;7.80;99.90
44170;DHT22;29836;52.286;9.576;2023-04-01T16:15:37;7.70;99.90
44170;DHT22;29836;52.286;9.576;2023-04-01T16:18:36;7.60;99.90
44170;DHT22;29836;52.286;9.576;2023-04-01T16:21:05;7.60;99.90
44170;DHT22;29836;52.286;9.576;2023-04-01T16:23:53;7.60;99.90
44170;DHT22;29836;52.286;9.576;2023-04-01T16:26:56;7.60;99.90
44170;DHT22;29836;52.286;9.576;2023-04-01T16:29:40;7.60;99.90
44170;DHT22;29836;52.286;9.576;2023-04-01T16:32:46;7.60;99.90
44170;DHT22;29836;52.286;9.576;2023-04-01T16:35:29;7.50;99.90
44170;DHT22;29836;52.286;9.576;2023-04-01T16:51:54;7.10;99.90
44170;DHT22;29836;52.286;9.576;2023-04-01T16:54:43;7.10;99.90
44170;DHT22;29836;52.286;9.576;2023-04-01T16:59:57;7.00;99.90
44170;DHT22;29836;52.286;9.576;2023-04-01T17:02:30;7.00;99.90
44170;DHT22;29836;52.286;9.576;2023-04-01T17:05:11;6.90;99.90
44170;DHT22;29836;52.286;9.576;2023-04-01T17:08:02;6.90;99.90
44170;DHT22;29836;52.286;9.576;2023-04-01T17:10:43;6.80;99.90
44170;DHT22;29836;52.286;9.576;2023-04-01T17:13:28;6.80;99.90
44170;DHT22;29836;52.286;9.576;2023-04-01T17:18:56;6.60;99.90
44170;DHT22;29836;52.286;9.576;2023-04-01T17:22:11;6.60;99.90
44170;DHT22;29836;52.286;9.576;2023-04-01T17:24:53;6.60;99.90
44170;DHT22;29836;52.286;9.576;2023-04-01T17:27:40;6.50;99.90
44170;DHT22;29836;52.286;9.576;2023-04-01T17:30:25;6.50;99.90
44170;DHT22;29836;52.286;9.576;2023-04-01T17:36:03;6.50;99.90
44170;DHT22;29836;52.286;9.576;2023-04-01T17:38:44;6.40;99.90
44170;DHT22;29836;52.286;9.576;2023-04-01T17:41:28;6.30;99.90
44170;DHT22;29836;52.286;9.576;2023-04-01T17:50:00;6.20;99.90
44170;DHT22;29836;52.286;9.576;2023-04-01T17:52:32;6.10;99.90
44170;DHT22;29836;52.286;9.576;2023-04-01T17:58:29;6.10;99.90
44170;DHT22;29836;52.286;9.576;2023-04-01T18:06:57;5.80;99.90
44170;DHT22;29836;52.286;9.576;2023-04-01T18:13:24;5.80;99.90
44170;DHT22;29836;52.286;9.576;2023-04-01T18:18:47;5.80;99.90
44170;DHT22;29836;52.286;9.576;2023-04-01T18:21:22;5.70;99.90
44170;DHT22;29836;52.286;9.576;2023-04-01T18:24:11;5.60;99.90
44170;DHT22;29836;52.286;9.576;2023-04-01T18:26:43;5.70;99.90
44170;DHT22;29836;52.286;9.576;2023-04-01T18:31:47;5.60;99.90
44170;DHT22;29836;52.286;9.576;2023-04-01T18:34:40;5.60;99.90
44170;DHT22;29836;52.286;9.576;2023-04-01T18:37:22;5.60;99.90
44170;DHT22;29836;52.286;9.576;2023-04-01T18:40:13;5.60;99.90
44170;DHT22;29836;52.286;9.576;2023-04-01T18:43:20;5.60;99.90
44170;DHT22;29836;52.286;9.576;2023-04-01T18:45:59;5.60;99.90
44170;DHT22;29836;52.286;9.576;2023-04-01T18:48:41;5.60;99.90
44170;DHT22;29836;52.286;9.576;2023-04-01T18:54:02;5.50;99.90
44170;DHT22;29836;52.286;9.576;2023-04-01T18:56:39;5.50;99.90
44170;DHT22;29836;52.286;9.576;2023-04-01T18:59:10;5.50;99.90
44170;DHT22;29836;52.286;9.576;2023-04-01T19:01:47;5.40;99.90
44170;DHT22;29836;52.286;9.576;2023-04-01T19:06:48;5.30;99.90
44170;DHT22;29836;52.286;9.576;2023-04-01T19:09:23;5.30;99.90
44170;DHT22;29836;52.286;9.576;2023-04-01T19:14:51;5.20;99.90
44170;DHT22;29836;52.286;9.576;2023-04-01T19:20:26;5.10;99.90
44170;DHT22;29836;52.286;9.576;2023-04-01T19:26:10;5.00;99.90
44170;DHT22;29836;52.286;9.576;2023-04-01T19:28:43;5.00;99.90
44170;DHT22;29836;52.286;9.576;2023-04-01T19:31:24;5.00;99.90
44170;DHT22;29836;52.286;9.576;2023-04-01T19:37:05;5.10;99.90
44170;DHT22;29836;52.286;9.576;2023-04-01T19:39:52;5.00;99.90
44170;DHT22;29836;52.286;9.576;2023-04-01T19:45:14;4.90;99.90
44170;DHT22;29836;52.286;9.576;2023-04-01T19:50:42;4.80;99.90
44170;DHT22;29836;52.286;9.576;2023-04-01T19:53:36;4.80;99.90
44170;DHT22;29836;52.286;9.576;2023-04-01T19:56:14;4.70;99.90
44170;DHT22;29836;52.286;9.576;2023-04-01T19:59:10;4.70;99.90
44170;DHT22;29836;52.286;9.576;2023-04-01T20:01:52;4.60;99.90
44170;DHT22;29836;52.286;9.576;2023-04-01T20:04:29;4.60;99.90
44170;DHT22;29836;52.286;9.576;2023-04-01T20:07:00;4.50;99.90
44170;DHT22;29836;52.286;9.576;2023-04-01T20:15:02;4.50;99.90
44170;DHT22;29836;52.286;9.576;2023-04-01T20:17:44;4.40;99.90
44170;DHT22;29836;52.286;9.576;2023-04-01T20:30:52;4.30;99.90
44170;DHT22;29836;52.286;9.576;2023-04-01T20:33:33;4.30;99.90
44170;DHT22;29836;52.286;9.576;2023-04-01T20:36:22;4.20;99.90
44170;DHT22;29836;52.286;9.576;2023-04-01T20:44:44;4.10;99.90
44170;DHT22;29836;52.286;9.576;2023-04-01T20:55:52;4.00;99.90
44170;DHT22;29836;52.286;9.576;2023-04-01T20:58:26;4.00;99.90
44170;DHT22;29836;52.286;9.576;2023-04-01T21:06:54;3.90;99.90
44170;DHT22;29836;52.286;9.576;2023-04-01T21:15:10;3.90;99.90
44170;DHT22;29836;52.286;9.576;2023-04-01T21:17:49;3.90;99.90
44170;DHT22;29836;52.286;9.576;2023-04-01T21:23:18;3.90;99.90
44170;DHT22;29836;52.286;9.576;2023-04-01T21:28:43;3.90;99.90
44170;DHT22;29836;52.286;9.576;2023-04-01T21:34:31;3.70;99.90
44170;DHT22;29836;52.286;9.576;2023-04-01T21:40:09;3.70;99.90
44170;DHT22;29836;52.286;9.576;2023-04-01T21:43:13;3.70;99.90
44170;DHT22;29836;52.286;9.576;2023-04-01T21:54:32;3.60;99.90
44170;DHT22;29836;52.286;9.576;2023-04-01T22:05:37;3.50;99.90
44170;DHT22;29836;52.286;9.576;2023-04-01T22:16:48;3.30;99.90
44170;DHT22;29836;52.286;9.576;2023-04-01T22:19:20;3.30;99.90
44170;DHT22;29836;52.286;9.576;2023-04-01T22:22:10;3.20;99.90
44170;DHT22;29836;52.286;9.576;2023-04-01T22:24:54;3.20;99.90
44170;DHT22;29836;52.286;9.576;2023-04-01T22:27:31;3.10;99.90
44170;DHT22;29836;52.286;9.576;2023-04-01T22:35:46;3.10;99.90
44170;DHT22;29836;52.286;9.576;2023-04-01T22:41:08;3.10;99.90
44170;DHT22;29836;52.286;9.576;2023-04-01T22:43:40;3.10;99.90
44170;DHT22;29836;52.286;9.576;2023-04-01T22:46:33;3.10;99.90
44170;DHT22;29836;52.286;9.576;2023-04-01T22:49:11;3.10;99.90
44170;DHT22;29836;52.286;9.576;2023-04-01T22:52:17;3.10;99.90
44170;DHT22;29836;52.286;9.576;2023-04-01T22:54:48;3.10;99.90
44170;DHT22;29836;52.286;9.576;2023-04-01T23:00:16;3.10;99.90
44170;DHT22;29836;52.286;9.576;2023-04-01T23:05:40;3.00;99.90
44170;DHT22;29836;52.286;9.576;2023-04-01T23:11:14;2.90;99.90
44170;DHT22;29836;52.286;9.576;2023-04-01T23:13:50;2.90;99.90
44170;DHT22;29836;52.286;9.576;2023-04-01T23:16:38;2.90;99.90
44170;DHT22;29836;52.286;9.576;2023-04-01T23:22:30;2.80;99.90
44170;DHT22;29836;52.286;9.576;2023-04-01T23:25:05;2.70;99.90
44170;DHT22;29836;52.286;9.576;2023-04-01T23:27:44;2.70;99.90
44170;DHT22;29836;52.286;9.576;2023-04-01T23:35:59;2.60;99.90
44170;DHT22;29836;52.286;9.576;2023-04-01T23:38:33;2.50;99.90
44170;DHT22;29836;52.286;9.576;2023-04-01T23:40:59;2.50;99.90
44170;DHT22;29836;52.286;9.576;2023-04-01T23:43:28;2.50;99.90
44170;DHT22;29836;52.286;9.576;2023-04-01T23:45:57;2.50;99.90
44170;DHT22;29836;52.286;9.576;2023-04-01T23:48:29;2.50;99.90
44170;DHT22;29836;52.286;9.576;2023-04-01T23:50:56;2.40;99.90
44170;DHT22;29836;52.286;9.576;2023-04-01T23:53:29;2.50;99.90
44170;DHT22;29836;52.286;9.576;2023-04-01T23:55:55;2.50;99.90
44170;DHT22;29836;52.286;9.576;2023-04-01T23:58:22;2.40;99.90
